Llica d'Amunt, Spain
Current Conditions -  °F | °C
As of 5:30 PM on Wednesday 22 Oct 2014 (Local Time) from LELL Reporting Station
Few Clouds Few Clouds  
Wind Chill: 21°   Ceiling: Unl
Heat Index: 21°   Visibility: 6mi
Dew Point: 15°   Wind: 10mph
Humidity: 68%   Direction: 130°SE
Pressure: 30.15"   Gusts: NA
Location:  41.62°N, 2.23°E
Report Text: LELL 221530Z 13009KT 090V160 9999 FEW020 21/15 Q1021
Loading
Personal Weather Stations






























Interactive Weather Map
Tropical Storm Tracking
New forecast layout! Learn more

10-Day Weather Forecast

Advertisements
Track Severe Weather on mobile